Velserdiep — PBLP — position and weather

sailwx.info

Track history (hours):
 
Tides and Currents Weather Stations Pressure Air Temp Water Temp Dewpoint Dewpoint Depression Visibility Wind Speed Wind Dir Waves Ship Positions

Velserdiep

Last reported at 2015-May-22 08:22 UTC. Time now 2015-May-22 14:39 UTC.
Position N 36°00' W 005°12'.

Length 120 m; draft 7.1 m.

Type: Cargo ship. MMSI: 244484000.

Date/timePositionNaut miles runAvg speedWind from/ knotsBaromVisibWave heightAir tempDewpointWater temp
2015-May-22 08:22N 36°00' W 005°12'911.4
2015-May-22 07:33N 35°59' W 005°23'213 9.9
2015-May-21 10:06N 37°07' W 009°34'610.7
2015-May-21 09:33N 37°12' W 009°31'1210.8
2015-May-21 08:27N 37°24' W 009°26'2010.7
2015-May-21 06:33N 37°43' W 009°18'1110.9
2015-May-21 05:33N 37°53' W 009°14'1111.0
2015-May-21 04:33N 38°04' W 009°09'1111.1
2015-May-21 03:33N 38°14' W 009°05'1211.6
2015-May-21 02:33N 38°25' W 008°60'8 1.4
2015-May-20 20:33N 38°31' W 008°53'0 0.0
2015-May-20 18:30N 38°31' W 008°53'0 0.0
2015-May-20 17:15N 38°31' W 008°53'0 0.0
2015-May-20 16:33N 38°31' W 008°53'0 0.0
2015-May-20 14:33N 38°31' W 008°53'0 0.0
2015-May-20 12:33N 38°31' W 008°53'0 0.0
2015-May-20 09:12N 38°31' W 008°53'0 0.0
2015-May-20 08:33N 38°31' W 008°53'0 0.0
2015-May-20 07:27N 38°31' W 008°53'0 0.0
2015-May-20 04:06N 38°31' W 008°53'0 0.0
2015-May-20 01:06N 38°31' W 008°53'0 0.0
2015-May-20 00:33N 38°31' W 008°53'0 0.0
2015-May-19 19:09N 38°31' W 008°53'0 0.0
2015-May-19 17:33N 38°31' W 008°53'0 0.0
2015-May-19 13:09N 38°31' W 008°53'0 0.0
2015-May-18 21:12N 38°31' W 008°53'3 5.1
2015-May-18 20:33N 38°29' W 008°56'8 7.9
2015-May-18 19:32N 38°22' W 009°00'1111.1
2015-May-18 18:33N 38°11' W 009°03'1010.2
2015-May-18 17:33N 38°01' W 009°05'1010.0
2015-May-18 16:33N 37°51' W 009°07'1010.1
2015-May-18 15:33N 37°41' W 009°09'1010.2
2015-May-18 14:33N 37°31' W 009°13'1110.3
2015-May-18 13:32N 37°21' W 009°15'1010.7
2015-May-18 12:33N 37°11' W 009°18'1110.6
2015-May-18 11:33N 37°00' W 009°20'1010.5
2015-May-18 10:33N 36°50' W 009°15'1110.8
2015-May-18 09:32N 36°44' W 009°04'1211.8
2015-May-18 08:32N 36°40' W 008°51'1212.2
2015-May-18 07:33N 36°36' W 008°36'1312.3
2015-May-18 06:31N 36°32' W 008°21'14212.9
2015-May-17 19:29N 35°59' W 005°30'1010.6
2015-May-17 18:34N 36°02' W 005°19'13512.1
2015-May-17 07:25N 36°06' W 002°31'1213.2
2015-May-17 06:32N 36°06' W 002°17'  
2015-May-14 22:06N 35°56' E 000°05'0 0.0
2015-May-14 21:30N 35°56' E 000°05'0 0.0
2015-May-14 20:24N 35°56' E 000°05'0 0.0
2015-May-14 19:30N 35°56' E 000°05'0 0.0
2015-May-14 18:33N 35°56' E 000°05'0 0.0
2015-May-14 17:33N 35°56' E 000°05'0 0.0
2015-May-14 16:30N 35°56' E 000°05'0 0.0
2015-May-14 15:24N 35°56' E 000°05'0 0.0
2015-May-14 03:24N 35°56' E 000°05'0 0.0
2015-May-14 00:18N 35°56' E 000°05'0 0.0
2015-May-13 23:33N 35°56' E 000°05'0 0.0
2015-May-13 22:30N 35°56' E 000°05'0 0.0
2015-May-13 21:30N 35°56' E 000°05'0 0.0
2015-May-13 20:29N 35°56' E 000°05'0 0.0
2015-May-13 19:32N 35°56' E 000°05'0 0.0
2015-May-13 18:33N 35°56' E 000°05'0 0.0
2015-May-13 17:32N 35°56' E 000°05'0 0.0
2015-May-13 16:29N 35°56' E 000°05'0 0.0
2015-May-13 15:23N 35°56' E 000°05'0 0.0
2015-May-13 14:32N 35°56' E 000°05'0 0.0
2015-May-13 13:29N 35°56' E 000°05'0 0.0
2015-May-13 12:32N 35°56' E 000°05'0 0.0
2015-May-13 10:29N 35°56' E 000°05'0 0.0
2015-May-13 09:30N 35°56' E 000°05'0 0.0
2015-May-13 08:23N 35°56' E 000°05'0 0.0
2015-May-13 07:26N 35°56' E 000°05'0 0.0
2015-May-13 06:23N 35°56' E 000°05'0 0.0
2015-May-12 19:11N 35°56' E 000°05'0 0.0
2015-May-12 18:29N 35°56' E 000°05'0 0.0
2015-May-12 17:23N 35°56' E 000°05'0 0.0
2015-May-12 16:29N 35°56' E 000°05'  
Track history (hours):
 
Tides and Currents Weather Stations Pressure Air Temp Water Temp Dewpoint Dewpoint Depression Visibility Wind Speed Wind Dir Waves Ship Positions

Velserdiep

Last reported at 2015-May-22 08:22 UTC. Time now 2015-May-22 14:39 UTC.
Position N 36°00' W 005°12'.

Length 120 m; draft 7.1 m.

Type: Cargo ship. MMSI: 244484000.

Date/timePositionNaut miles runAvg speedWind from/ knotsBaromVisibWave heightAir tempDewpointWater temp
2015-May-22 08:22N 36°00' W 005°12'911.4
2015-May-22 07:33N 35°59' W 005°23'213 9.9
2015-May-21 10:06N 37°07' W 009°34'610.7
2015-May-21 09:33N 37°12' W 009°31'1210.8
2015-May-21 08:27N 37°24' W 009°26'2010.7
2015-May-21 06:33N 37°43' W 009°18'1110.9
2015-May-21 05:33N 37°53' W 009°14'1111.0
2015-May-21 04:33N 38°04' W 009°09'1111.1
2015-May-21 03:33N 38°14' W 009°05'1211.6
2015-May-21 02:33N 38°25' W 008°60'8 1.4
2015-May-20 20:33N 38°31' W 008°53'0 0.0
2015-May-20 18:30N 38°31' W 008°53'0 0.0
2015-May-20 17:15N 38°31' W 008°53'0 0.0
2015-May-20 16:33N 38°31' W 008°53'0 0.0
2015-May-20 14:33N 38°31' W 008°53'0 0.0
2015-May-20 12:33N 38°31' W 008°53'0 0.0
2015-May-20 09:12N 38°31' W 008°53'0 0.0
2015-May-20 08:33N 38°31' W 008°53'0 0.0
2015-May-20 07:27N 38°31' W 008°53'0 0.0
2015-May-20 04:06N 38°31' W 008°53'0 0.0
2015-May-20 01:06N 38°31' W 008°53'0 0.0
2015-May-20 00:33N 38°31' W 008°53'0 0.0
2015-May-19 19:09N 38°31' W 008°53'0 0.0
2015-May-19 17:33N 38°31' W 008°53'0 0.0
2015-May-19 13:09N 38°31' W 008°53'0 0.0
2015-May-18 21:12N 38°31' W 008°53'3 5.1
2015-May-18 20:33N 38°29' W 008°56'8 7.9
2015-May-18 19:32N 38°22' W 009°00'1111.1
2015-May-18 18:33N 38°11' W 009°03'1010.2
2015-May-18 17:33N 38°01' W 009°05'1010.0
2015-May-18 16:33N 37°51' W 009°07'1010.1
2015-May-18 15:33N 37°41' W 009°09'1010.2
2015-May-18 14:33N 37°31' W 009°13'1110.3
2015-May-18 13:32N 37°21' W 009°15'1010.7
2015-May-18 12:33N 37°11' W 009°18'1110.6
2015-May-18 11:33N 37°00' W 009°20'1010.5
2015-May-18 10:33N 36°50' W 009°15'1110.8
2015-May-18 09:32N 36°44' W 009°04'1211.8
2015-May-18 08:32N 36°40' W 008°51'1212.2
2015-May-18 07:33N 36°36' W 008°36'1312.3
2015-May-18 06:31N 36°32' W 008°21'14212.9
2015-May-17 19:29N 35°59' W 005°30'1010.6
2015-May-17 18:34N 36°02' W 005°19'13512.1
2015-May-17 07:25N 36°06' W 002°31'1213.2
2015-May-17 06:32N 36°06' W 002°17'  
2015-May-14 22:06N 35°56' E 000°05'0 0.0
2015-May-14 21:30N 35°56' E 000°05'0 0.0
2015-May-14 20:24N 35°56' E 000°05'0 0.0
2015-May-14 19:30N 35°56' E 000°05'0 0.0
2015-May-14 18:33N 35°56' E 000°05'0 0.0
2015-May-14 17:33N 35°56' E 000°05'0 0.0
2015-May-14 16:30N 35°56' E 000°05'0 0.0
2015-May-14 15:24N 35°56' E 000°05'0 0.0
2015-May-14 03:24N 35°56' E 000°05'0 0.0
2015-May-14 00:18N 35°56' E 000°05'0 0.0
2015-May-13 23:33N 35°56' E 000°05'0 0.0
2015-May-13 22:30N 35°56' E 000°05'0 0.0
2015-May-13 21:30N 35°56' E 000°05'0 0.0
2015-May-13 20:29N 35°56' E 000°05'0 0.0
2015-May-13 19:32N 35°56' E 000°05'0 0.0
2015-May-13 18:33N 35°56' E 000°05'0 0.0
2015-May-13 17:32N 35°56' E 000°05'0 0.0
2015-May-13 16:29N 35°56' E 000°05'0 0.0
2015-May-13 15:23N 35°56' E 000°05'0 0.0
2015-May-13 14:32N 35°56' E 000°05'0 0.0
2015-May-13 13:29N 35°56' E 000°05'0 0.0
2015-May-13 12:32N 35°56' E 000°05'0 0.0
2015-May-13 10:29N 35°56' E 000°05'0 0.0
2015-May-13 09:30N 35°56' E 000°05'0 0.0
2015-May-13 08:23N 35°56' E 000°05'0 0.0
2015-May-13 07:26N 35°56' E 000°05'0 0.0
2015-May-13 06:23N 35°56' E 000°05'0 0.0
2015-May-12 19:11N 35°56' E 000°05'0 0.0
2015-May-12 18:29N 35°56' E 000°05'0 0.0
2015-May-12 17:23N 35°56' E 000°05'0 0.0
2015-May-12 16:29N 35°56' E 000°05'  

Dump ship's entire track history